createdAt,value
2022-12-25T00:00:13.813Z,26.70
2022-12-25T00:01:10.390Z,29.10
2022-12-25T00:02:09.280Z,32.30
2022-12-25T00:03:09.417Z,31.90
2022-12-25T00:04:09.294Z,27.30
2022-12-25T00:05:09.207Z,31.90
2022-12-25T00:06:09.199Z,27.80
2022-12-25T00:07:09.179Z,25.10
2022-12-25T00:08:09.204Z,29.40
2022-12-25T00:09:09.144Z,27.20
2022-12-25T00:10:09.126Z,28.60
2022-12-25T00:11:10.109Z,29.00
2022-12-25T00:12:09.104Z,25.60
2022-12-25T00:13:09.106Z,25.30
2022-12-25T00:14:09.091Z,27.40
2022-12-25T00:15:09.034Z,29.90
2022-12-25T00:16:09.106Z,24.50
2022-12-25T00:17:08.997Z,25.50
2022-12-25T00:18:09.011Z,28.40
2022-12-25T00:19:08.957Z,25.50
2022-12-25T00:20:08.961Z,27.80
2022-12-25T00:21:08.926Z,27.10
2022-12-25T00:22:08.925Z,26.10
2022-12-25T00:23:08.917Z,24.50
2022-12-25T00:24:08.870Z,30.00
2022-12-25T00:25:08.870Z,27.10
2022-12-25T00:26:08.844Z,23.20
2022-12-25T00:27:08.839Z,27.50
2022-12-25T00:28:08.855Z,27.30
2022-12-25T00:29:08.796Z,29.10
2022-12-25T00:30:08.767Z,30.80
2022-12-25T00:31:08.809Z,27.30
2022-12-25T00:32:08.735Z,30.40
2022-12-25T00:33:08.773Z,27.60
2022-12-25T00:34:08.697Z,31.10
2022-12-25T00:35:08.688Z,27.50
2022-12-25T00:36:08.681Z,26.60
2022-12-25T00:37:08.662Z,25.00
2022-12-25T00:38:08.669Z,28.20
2022-12-25T00:39:08.622Z,25.10
2022-12-25T00:40:08.623Z,25.60
2022-12-25T00:41:08.583Z,25.00
2022-12-25T00:42:08.570Z,20.20
2022-12-25T00:43:08.592Z,29.80
2022-12-25T00:44:08.540Z,25.80
2022-12-25T00:45:08.516Z,24.80
2022-12-25T00:46:08.525Z,21.60
2022-12-25T00:47:08.535Z,24.30
2022-12-25T00:48:08.498Z,24.50
2022-12-25T00:49:08.454Z,26.40
2022-12-25T00:50:08.426Z,22.00
2022-12-25T00:51:08.408Z,21.60
2022-12-25T00:52:08.403Z,23.50
2022-12-25T00:53:08.416Z,23.90
2022-12-25T00:54:08.368Z,27.40
2022-12-25T00:55:08.350Z,23.10
2022-12-25T00:56:08.482Z,28.00
2022-12-25T00:57:08.520Z,24.00
2022-12-25T00:58:08.453Z,24.50
2022-12-25T00:59:08.265Z,21.90
2022-12-25T01:00:08.277Z,21.10
2022-12-25T01:01:08.342Z,25.60
2022-12-25T01:02:08.332Z,23.20
2022-12-25T01:03:08.300Z,23.90
2022-12-25T01:04:08.180Z,24.90
2022-12-25T01:05:08.180Z,32.50
2022-12-25T01:06:08.144Z,67.10
2022-12-25T01:07:08.141Z,125.20
2022-12-25T01:08:08.148Z,132.70
2022-12-25T01:09:08.102Z,136.30
2022-12-25T01:10:08.080Z,191.90
2022-12-25T01:11:08.072Z,125.20
2022-12-25T01:12:08.038Z,178.50
2022-12-25T01:13:08.076Z,112.20
2022-12-25T01:14:08.020Z,134.60
2022-12-25T01:15:07.993Z,75.90
2022-12-25T01:16:08.035Z,106.40
2022-12-25T01:17:07.961Z,143.80
2022-12-25T01:18:09.820Z,129.20
2022-12-25T01:19:08.962Z,257.00
2022-12-25T01:20:07.938Z,237.70
2022-12-25T01:21:07.891Z,74.40
2022-12-25T01:22:07.881Z,62.40
2022-12-25T01:23:08.160Z,101.70
2022-12-25T01:24:07.863Z,50.70
2022-12-25T01:25:07.815Z,67.70
2022-12-25T01:26:07.821Z,97.40
2022-12-25T01:27:07.795Z,42.50
2022-12-25T01:28:07.780Z,52.90
2022-12-25T01:29:07.782Z,95.30
2022-12-25T01:30:07.734Z,95.10
2022-12-25T01:31:07.749Z,78.90
2022-12-25T01:32:08.530Z,56.80
2022-12-25T01:33:07.677Z,51.90
2022-12-25T01:34:07.711Z,34.60
2022-12-25T01:35:07.652Z,36.30
2022-12-25T01:36:07.618Z,37.00
2022-12-25T01:37:07.621Z,29.50
2022-12-25T01:38:07.586Z,35.30
2022-12-25T01:39:07.604Z,29.80
2022-12-25T01:40:07.561Z,36.40
2022-12-25T01:41:07.553Z,29.10
2022-12-25T01:42:07.520Z,30.20
2022-12-25T01:43:07.505Z,26.70
2022-12-25T01:44:07.543Z,27.20
2022-12-25T01:45:07.475Z,28.90
2022-12-25T01:46:07.540Z,31.30
2022-12-25T01:47:07.442Z,24.10
2022-12-25T01:48:07.463Z,28.70
2022-12-25T01:49:07.431Z,29.30
2022-12-25T01:50:07.404Z,25.70
2022-12-25T01:51:07.375Z,35.20
2022-12-25T01:52:07.351Z,29.00
2022-12-25T01:53:07.328Z,25.80
2022-12-25T01:54:07.331Z,24.00
2022-12-25T01:55:07.291Z,29.90
2022-12-25T01:56:07.278Z,24.90
2022-12-25T01:57:07.261Z,28.50
2022-12-25T01:58:07.241Z,24.80
2022-12-25T01:59:07.276Z,21.90
2022-12-25T02:00:07.214Z,23.30
2022-12-25T02:01:07.237Z,29.70
2022-12-25T02:02:07.283Z,33.00
2022-12-25T02:03:08.216Z,29.50
2022-12-25T02:04:07.157Z,29.00
2022-12-25T02:05:07.116Z,25.40
2022-12-25T02:06:07.119Z,29.10
2022-12-25T02:07:07.096Z,33.70
2022-12-25T02:08:07.080Z,31.00
2022-12-25T02:09:07.091Z,29.40
2022-12-25T02:10:07.035Z,24.60
2022-12-25T02:11:07.017Z,31.20
2022-12-25T02:12:07.006Z,22.70
2022-12-25T02:13:06.998Z,25.70
2022-12-25T02:14:07.002Z,26.80
2022-12-25T02:15:06.957Z,23.80
2022-12-25T02:16:06.990Z,29.10
2022-12-25T02:17:06.980Z,26.50
2022-12-25T02:18:06.887Z,25.20
2022-12-25T02:19:06.912Z,25.90
2022-12-25T02:20:06.847Z,23.60
2022-12-25T02:21:06.860Z,24.60
2022-12-25T02:22:06.813Z,27.90
2022-12-25T02:23:06.795Z,25.00
2022-12-25T02:24:06.821Z,24.90
2022-12-25T02:25:07.768Z,29.10
2022-12-25T02:26:06.768Z,25.20
2022-12-25T02:27:06.743Z,25.00
2022-12-25T02:28:06.713Z,25.20
2022-12-25T02:29:06.742Z,25.50
2022-12-25T02:30:06.674Z,21.80
2022-12-25T02:31:06.677Z,26.10
2022-12-25T02:32:06.711Z,26.70
2022-12-25T02:33:06.635Z,22.30
2022-12-25T02:34:06.649Z,23.60
2022-12-25T02:35:06.624Z,23.20
2022-12-25T02:36:06.583Z,27.20
2022-12-25T02:37:06.568Z,28.50
2022-12-25T02:38:06.540Z,24.50
2022-12-25T02:39:06.578Z,23.60
2022-12-25T02:40:06.526Z,24.50
2022-12-25T02:41:06.504Z,30.20
2022-12-25T02:42:06.484Z,26.80
2022-12-25T02:43:06.492Z,20.20
2022-12-25T02:44:06.475Z,24.40
2022-12-25T02:45:06.447Z,27.30
2022-12-25T02:46:06.458Z,28.60
2022-12-25T02:47:06.389Z,30.90
2022-12-25T02:48:06.388Z,27.40
2022-12-25T02:49:06.398Z,23.90
2022-12-25T02:50:06.338Z,25.90
2022-12-25T02:51:06.318Z,23.60
2022-12-25T02:52:06.307Z,25.00
2022-12-25T02:53:06.295Z,24.90
2022-12-25T02:54:06.296Z,26.80
2022-12-25T02:55:06.266Z,28.60
2022-12-25T02:56:06.240Z,23.80
2022-12-25T02:57:06.215Z,26.50
2022-12-25T02:58:06.197Z,25.60
2022-12-25T02:59:06.225Z,29.40
2022-12-25T03:00:06.173Z,34.00
2022-12-25T03:01:06.192Z,27.00
2022-12-25T03:02:06.256Z,27.80
2022-12-25T03:03:06.176Z,31.60
2022-12-25T03:04:06.130Z,31.70
2022-12-25T03:05:06.084Z,31.90
2022-12-25T03:06:06.079Z,33.30
2022-12-25T03:07:06.059Z,34.50
2022-12-25T03:08:06.028Z,31.70
2022-12-25T03:09:06.055Z,36.40
2022-12-25T03:10:06.001Z,39.80
2022-12-25T03:11:05.979Z,29.60
2022-12-25T03:12:05.959Z,27.70
2022-12-25T03:13:05.952Z,31.60
2022-12-25T03:14:05.971Z,31.10
2022-12-25T03:15:05.920Z,28.90
2022-12-25T03:16:05.907Z,26.60
2022-12-25T03:17:05.936Z,30.50
2022-12-25T03:18:05.868Z,34.40
2022-12-25T03:19:05.870Z,31.20
2022-12-25T03:20:05.834Z,35.50
2022-12-25T03:21:05.848Z,30.90
2022-12-25T03:22:05.801Z,29.60
2022-12-25T03:23:05.774Z,35.00
2022-12-25T03:24:05.810Z,34.40
2022-12-25T03:25:05.734Z,38.50
2022-12-25T03:26:05.720Z,36.30
2022-12-25T03:27:05.734Z,39.80
2022-12-25T03:28:05.679Z,43.00
2022-12-25T03:29:05.700Z,44.40
2022-12-25T03:30:05.659Z,50.20
2022-12-25T03:31:05.693Z,51.60
2022-12-25T03:32:05.626Z,51.70
2022-12-25T03:33:23.276Z,67.00
2022-12-25T03:34:07.623Z,82.20
2022-12-25T03:35:06.502Z,67.00
2022-12-25T03:36:05.549Z,43.40
2022-12-25T03:37:05.536Z,70.30
2022-12-25T03:38:05.511Z,57.50
2022-12-25T03:39:05.524Z,47.60
2022-12-25T03:40:05.481Z,38.90
2022-12-25T03:41:05.467Z,61.20
2022-12-25T03:42:05.535Z,46.70
2022-12-25T03:43:05.436Z,51.00
2022-12-25T03:44:05.463Z,48.40
2022-12-25T03:45:05.392Z,44.60
2022-12-25T03:46:05.403Z,42.40
2022-12-25T03:47:05.380Z,47.60
2022-12-25T03:48:05.356Z,45.50
2022-12-25T03:49:05.370Z,40.30
2022-12-25T03:50:05.316Z,30.90
2022-12-25T03:51:05.303Z,41.50
2022-12-25T03:52:05.292Z,42.60
2022-12-25T03:53:05.257Z,37.20
2022-12-25T03:54:05.246Z,35.20
2022-12-25T03:55:05.255Z,36.90
2022-12-25T03:56:05.213Z,30.60
2022-12-25T03:57:05.195Z,29.70
2022-12-25T03:58:05.187Z,29.50
2022-12-25T03:59:05.152Z,30.80
2022-12-25T04:00:05.188Z,36.50
2022-12-25T04:01:05.143Z,29.20
2022-12-25T04:02:05.242Z,25.50
2022-12-25T04:03:05.110Z,29.90
2022-12-25T04:04:06.082Z,32.40
2022-12-25T04:05:05.250Z,32.00
2022-12-25T04:06:05.036Z,29.70
2022-12-25T04:07:05.035Z,22.90
2022-12-25T04:08:05.019Z,32.20
2022-12-25T04:09:04.994Z,28.20
2022-12-25T04:10:05.008Z,22.50
2022-12-25T04:11:04.956Z,26.90
2022-12-25T04:12:04.951Z,24.00
2022-12-25T04:13:04.915Z,22.80
2022-12-25T04:14:04.900Z,23.00
2022-12-25T04:15:04.992Z,21.30
2022-12-25T04:16:04.897Z,24.50
2022-12-25T04:17:04.847Z,21.90
2022-12-25T04:18:04.829Z,26.20
2022-12-25T04:19:04.812Z,23.70
2022-12-25T04:20:04.830Z,25.40
2022-12-25T04:21:04.776Z,26.40
2022-12-25T04:22:04.774Z,24.30
2022-12-25T04:23:04.747Z,25.40
2022-12-25T04:24:04.735Z,23.50
2022-12-25T04:25:04.756Z,25.50
2022-12-25T04:26:04.706Z,20.00
2022-12-25T04:27:04.680Z,23.10
2022-12-25T04:28:04.660Z,22.70
2022-12-25T04:29:04.641Z,22.70
2022-12-25T04:30:04.670Z,21.80
2022-12-25T04:31:04.648Z,22.40
2022-12-25T04:32:04.593Z,18.40
2022-12-25T04:33:04.581Z,21.90
2022-12-25T04:34:04.558Z,21.40
2022-12-25T04:35:04.567Z,21.70
2022-12-25T04:36:04.531Z,23.20
2022-12-25T04:37:04.523Z,23.40
2022-12-25T04:38:04.494Z,24.90
2022-12-25T04:39:04.481Z,29.50
2022-12-25T04:40:04.492Z,36.20
2022-12-25T04:41:04.451Z,31.30
2022-12-25T04:42:04.427Z,34.50
2022-12-25T04:43:04.409Z,32.60
2022-12-25T04:44:04.388Z,33.60
2022-12-25T04:45:04.418Z,33.00
2022-12-25T04:46:04.375Z,35.30
2022-12-25T04:47:10.728Z,30.70
2022-12-25T04:48:06.341Z,34.70
2022-12-25T04:49:04.314Z,34.00
2022-12-25T04:50:04.344Z,39.40
2022-12-25T04:51:04.277Z,31.50
2022-12-25T04:52:04.270Z,40.30
2022-12-25T04:53:04.235Z,37.50
2022-12-25T04:54:04.233Z,29.30
2022-12-25T04:55:04.232Z,32.20
2022-12-25T04:56:04.192Z,37.10
2022-12-25T04:57:04.187Z,31.00
2022-12-25T04:58:04.172Z,29.50
2022-12-25T04:59:04.132Z,31.70
2022-12-25T05:00:04.171Z,34.60
2022-12-25T05:01:04.127Z,38.00
2022-12-25T05:02:04.204Z,39.20
2022-12-25T05:03:04.215Z,34.30
2022-12-25T05:04:04.066Z,38.20
2022-12-25T05:05:04.071Z,28.10
2022-12-25T05:06:04.069Z,35.30
2022-12-25T05:07:04.035Z,35.00
2022-12-25T05:08:03.992Z,38.40
2022-12-25T05:09:04.021Z,31.90
2022-12-25T05:10:03.978Z,34.40
2022-12-25T05:11:03.966Z,36.80
2022-12-25T05:12:03.926Z,30.80
2022-12-25T05:13:03.902Z,38.30
2022-12-25T05:14:03.906Z,32.70
2022-12-25T05:15:03.914Z,36.70
2022-12-25T05:16:04.008Z,39.30
2022-12-25T05:17:03.837Z,45.10
2022-12-25T05:18:03.847Z,42.90
2022-12-25T05:19:03.804Z,44.20
2022-12-25T05:20:03.832Z,46.20
2022-12-25T05:21:03.776Z,34.30
2022-12-25T05:22:03.760Z,34.90
2022-12-25T05:23:03.828Z,42.10
2022-12-25T05:24:03.734Z,36.70
2022-12-25T05:25:03.747Z,37.80
2022-12-25T05:26:03.692Z,33.30
2022-12-25T05:27:03.705Z,38.10
2022-12-25T05:28:03.648Z,39.00
2022-12-25T05:29:03.641Z,34.20
2022-12-25T05:30:03.652Z,29.30
2022-12-25T05:31:03.653Z,25.70
2022-12-25T05:32:03.576Z,28.80
2022-12-25T05:33:03.573Z,27.50
2022-12-25T05:34:03.550Z,26.10
2022-12-25T05:35:03.568Z,19.90
2022-12-25T05:36:03.570Z,23.90
2022-12-25T05:37:03.510Z,30.40
2022-12-25T05:38:03.483Z,27.40
2022-12-25T05:39:03.464Z,27.00
2022-12-25T05:40:03.482Z,32.30
2022-12-25T05:41:03.457Z,31.30
2022-12-25T05:42:03.430Z,30.50
2022-12-25T05:43:03.399Z,36.40
2022-12-25T05:44:03.405Z,29.00
2022-12-25T05:45:03.398Z,36.10
2022-12-25T05:46:03.359Z,49.10
2022-12-25T05:47:03.375Z,37.80
2022-12-25T05:48:03.333Z,51.60
2022-12-25T05:49:03.291Z,47.30
2022-12-25T05:50:03.327Z,37.30
2022-12-25T05:51:03.268Z,50.50
2022-12-25T05:52:03.244Z,49.00
2022-12-25T05:53:08.046Z,45.60
2022-12-25T05:54:05.216Z,39.90
2022-12-25T05:55:03.238Z,43.40
2022-12-25T05:56:03.202Z,45.40
2022-12-25T05:57:03.176Z,48.40
2022-12-25T05:58:03.155Z,51.90
2022-12-25T05:59:03.133Z,47.80
2022-12-25T06:00:03.151Z,45.30
2022-12-25T06:01:03.103Z,47.40
2022-12-25T06:02:03.208Z,35.40
2022-12-25T06:03:04.201Z,45.70
2022-12-25T06:04:08.420Z,43.70
2022-12-25T06:05:05.073Z,51.40
2022-12-25T06:06:03.010Z,44.00
2022-12-25T06:07:02.994Z,45.10
2022-12-25T06:08:02.978Z,57.40
2022-12-25T06:09:02.955Z,51.00
2022-12-25T06:10:03.007Z,41.20
2022-12-25T06:11:02.918Z,45.80
2022-12-25T06:12:02.933Z,41.90
2022-12-25T06:13:02.890Z,52.90
2022-12-25T06:14:02.902Z,42.60
2022-12-25T06:15:02.902Z,47.40
2022-12-25T06:16:02.910Z,52.10
2022-12-25T06:17:02.849Z,41.90
2022-12-25T06:18:02.813Z,38.60
2022-12-25T06:19:02.790Z,40.20
2022-12-25T06:20:02.795Z,43.70
2022-12-25T06:21:02.749Z,50.40
2022-12-25T06:22:02.732Z,49.30
2022-12-25T06:23:02.737Z,45.40
2022-12-25T06:24:02.788Z,34.00
2022-12-25T06:25:02.717Z,32.70
2022-12-25T06:26:02.663Z,35.50
2022-12-25T06:27:02.642Z,33.60
2022-12-25T06:28:02.632Z,31.10
2022-12-25T06:29:02.622Z,32.40
2022-12-25T06:30:02.633Z,28.90
2022-12-25T06:31:02.611Z,30.50
2022-12-25T06:32:02.657Z,24.80
2022-12-25T06:33:02.535Z,26.50
2022-12-25T06:34:02.527Z,22.80
2022-12-25T06:35:02.509Z,24.30
2022-12-25T06:36:02.518Z,22.10
2022-12-25T06:37:02.490Z,24.10
2022-12-25T06:38:02.451Z,20.50
2022-12-25T06:39:02.453Z,22.70
2022-12-25T06:40:02.439Z,22.60
2022-12-25T06:41:02.432Z,19.50
2022-12-25T06:42:02.388Z,24.50
2022-12-25T06:43:02.372Z,22.30
2022-12-25T06:44:02.370Z,17.90
2022-12-25T06:45:02.338Z,19.60
2022-12-25T06:46:02.428Z,21.10
2022-12-25T06:47:02.317Z,21.10
2022-12-25T06:48:02.304Z,25.90
2022-12-25T06:49:02.265Z,29.00
2022-12-25T06:50:02.267Z,29.90
2022-12-25T06:51:02.263Z,28.00
2022-12-25T06:52:02.222Z,33.90
2022-12-25T06:53:02.198Z,36.40
2022-12-25T06:54:02.185Z,31.30
2022-12-25T06:55:02.181Z,28.30
2022-12-25T06:56:02.209Z,33.60
2022-12-25T06:57:02.136Z,36.10
2022-12-25T06:58:02.125Z,26.90
2022-12-25T06:59:02.093Z,30.60
2022-12-25T07:00:02.131Z,30.20
2022-12-25T07:01:02.159Z,30.20
2022-12-25T07:02:02.198Z,33.60
2022-12-25T07:03:02.125Z,32.90
2022-12-25T07:04:02.006Z,31.70
2022-12-25T07:05:02.003Z,28.70
2022-12-25T07:06:02.021Z,30.00
2022-12-25T07:07:08.306Z,32.40
2022-12-25T07:08:03.948Z,34.90
2022-12-25T07:09:01.933Z,29.60
2022-12-25T07:10:01.918Z,25.50
2022-12-25T07:11:01.939Z,36.10
2022-12-25T07:12:01.863Z,29.30
2022-12-25T07:13:01.857Z,30.10
2022-12-25T07:14:01.854Z,32.70
2022-12-25T07:15:01.819Z,38.20
2022-12-25T07:16:01.882Z,30.00
2022-12-25T07:17:01.847Z,29.10
2022-12-25T07:18:01.789Z,32.70
2022-12-25T07:19:01.770Z,40.50
2022-12-25T07:20:01.749Z,44.20
2022-12-25T07:21:01.748Z,44.10
2022-12-25T07:22:01.705Z,54.60
2022-12-25T07:23:01.686Z,55.10
2022-12-25T07:24:01.672Z,70.00
2022-12-25T07:25:01.665Z,79.60
2022-12-25T07:26:01.681Z,49.60
2022-12-25T07:27:01.628Z,95.20
2022-12-25T07:28:01.602Z,111.10
2022-12-25T07:29:01.606Z,73.20
2022-12-25T07:30:01.565Z,67.30
2022-12-25T07:31:01.582Z,104.20
2022-12-25T07:32:01.603Z,113.60
2022-12-25T07:33:01.526Z,260.50
2022-12-25T07:34:01.502Z,138.00
2022-12-25T07:35:01.508Z,99.30
2022-12-25T07:36:01.502Z,117.90
2022-12-25T07:37:01.457Z,147.80
2022-12-25T07:38:01.434Z,154.10
2022-12-25T07:39:01.453Z,205.60
2022-12-25T07:40:01.523Z,137.40
2022-12-25T07:41:01.427Z,159.70
2022-12-25T07:42:01.363Z,231.00
2022-12-25T07:43:01.353Z,184.50
2022-12-25T07:44:01.329Z,141.40
2022-12-25T07:45:01.311Z,107.30
2022-12-25T07:46:01.393Z,165.00
2022-12-25T07:47:01.351Z,167.40
2022-12-25T07:48:05.169Z,136.10
2022-12-25T07:49:03.237Z,68.70
2022-12-25T07:50:01.256Z,84.90
2022-12-25T07:51:01.251Z,119.20
2022-12-25T07:52:01.226Z,104.60
2022-12-25T07:53:01.178Z,159.40
2022-12-25T07:54:01.176Z,254.30
2022-12-25T07:55:01.214Z,240.40
2022-12-25T07:56:01.220Z,218.20
2022-12-25T07:57:01.111Z,266.60
2022-12-25T07:58:01.101Z,212.50
2022-12-25T07:59:01.114Z,256.80
2022-12-25T08:00:01.074Z,315.10
2022-12-25T08:01:01.215Z,352.90
2022-12-25T08:02:01.317Z,375.00
2022-12-25T08:03:01.205Z,491.20
2022-12-25T08:04:01.166Z,261.70
2022-12-25T08:05:00.984Z,310.20
2022-12-25T08:06:01.010Z,278.40
2022-12-25T08:07:00.942Z,298.30
2022-12-25T08:08:00.947Z,314.10
2022-12-25T08:09:00.924Z,496.60
2022-12-25T08:10:00.891Z,442.30
2022-12-25T08:11:00.964Z,403.30
2022-12-25T08:12:00.883Z,395.40
2022-12-25T08:13:00.844Z,319.50
2022-12-25T08:14:00.837Z,354.30
2022-12-25T08:15:00.803Z,248.60
2022-12-25T08:16:00.820Z,333.20
2022-12-25T08:17:00.841Z,287.90
2022-12-25T08:18:00.742Z,257.40
2022-12-25T08:19:00.734Z,301.90
2022-12-25T08:20:00.735Z,279.50
2022-12-25T08:21:00.745Z,286.50
2022-12-25T08:22:00.700Z,374.40
2022-12-25T08:23:00.667Z,285.80
2022-12-25T08:24:00.654Z,361.20
2022-12-25T08:25:00.630Z,195.90
2022-12-25T08:26:05.014Z,372.20
2022-12-25T08:27:02.610Z,384.90
2022-12-25T08:28:00.577Z,172.80
2022-12-25T08:29:00.568Z,300.90
2022-12-25T08:30:00.561Z,209.50
2022-12-25T08:31:00.594Z,205.50
2022-12-25T08:32:00.522Z,193.70
2022-12-25T08:33:00.618Z,117.80
2022-12-25T08:34:00.474Z,202.70
2022-12-25T08:35:00.481Z,190.70
2022-12-25T08:36:00.481Z,94.00
2022-12-25T08:37:00.419Z,111.40
2022-12-25T08:38:00.413Z,72.30
2022-12-25T08:39:03.307Z,57.30
2022-12-25T08:40:01.407Z,58.80
2022-12-25T08:41:00.395Z,80.50
2022-12-25T08:42:00.334Z,72.70
2022-12-25T08:43:00.427Z,76.50
2022-12-25T08:44:00.311Z,65.70
2022-12-25T08:45:00.284Z,54.30
2022-12-25T08:46:00.341Z,55.20
2022-12-25T08:47:00.253Z,52.90
2022-12-25T08:48:00.219Z,51.80
2022-12-25T08:49:00.245Z,52.50
2022-12-25T08:50:00.228Z,45.00
2022-12-25T08:51:00.228Z,55.00
2022-12-25T08:52:00.172Z,54.70
2022-12-25T08:53:00.349Z,61.50
2022-12-25T08:54:00.171Z,51.20
2022-12-25T08:55:00.123Z,45.70
2022-12-25T08:56:00.262Z,43.00
2022-12-25T08:57:02.890Z,42.90
2022-12-25T08:58:01.067Z,31.00
2022-12-25T08:59:00.038Z,33.20
2022-12-25T09:00:00.032Z,36.60
2022-12-25T09:01:00.144Z,43.80
2022-12-25T09:02:00.072Z,41.40
2022-12-25T09:03:00.118Z,36.70
2022-12-25T09:03:59.958Z,32.50
2022-12-25T09:04:59.957Z,27.10
2022-12-25T09:05:59.970Z,28.20
2022-12-25T09:06:59.930Z,25.40
2022-12-25T09:07:59.894Z,24.70
2022-12-25T09:08:59.861Z,24.60
2022-12-25T09:09:59.846Z,29.90
2022-12-25T09:10:59.880Z,26.90
2022-12-25T09:11:59.827Z,21.80
2022-12-25T09:12:59.965Z,26.60
2022-12-25T09:13:59.780Z,22.40
2022-12-25T09:14:59.793Z,30.80
2022-12-25T09:15:59.857Z,24.80
2022-12-25T09:16:59.735Z,23.90
2022-12-25T09:17:59.724Z,23.50
2022-12-25T09:18:59.695Z,21.80
2022-12-25T09:19:59.674Z,23.50
2022-12-25T09:20:59.685Z,26.50
2022-12-25T09:21:59.662Z,23.90
2022-12-25T09:22:59.673Z,21.90
2022-12-25T09:23:59.632Z,26.50
2022-12-25T09:24:59.621Z,23.30
2022-12-25T09:25:59.642Z,24.40
2022-12-25T09:26:59.582Z,24.40
2022-12-25T09:27:59.556Z,27.80
2022-12-25T09:28:59.537Z,21.80
2022-12-25T09:29:59.508Z,22.30
2022-12-25T09:30:59.575Z,26.10
2022-12-25T09:31:59.479Z,21.50
2022-12-25T09:32:59.446Z,23.10
2022-12-25T09:33:59.472Z,22.90
2022-12-25T09:34:59.426Z,21.50
2022-12-25T09:35:59.460Z,20.90
2022-12-25T09:36:59.417Z,21.20
2022-12-25T09:37:59.384Z,21.50
2022-12-25T09:38:59.363Z,22.00
2022-12-25T09:39:59.337Z,23.80
2022-12-25T09:40:59.404Z,24.80
2022-12-25T09:41:59.311Z,28.50
2022-12-25T09:42:59.449Z,22.60
2022-12-25T09:43:59.306Z,25.00
2022-12-25T09:44:59.263Z,24.50
2022-12-25T09:45:59.278Z,22.20
2022-12-25T09:46:59.309Z,26.90
2022-12-25T09:47:59.241Z,25.20
2022-12-25T09:48:59.189Z,23.30
2022-12-25T09:49:59.163Z,19.80
2022-12-25T09:50:59.191Z,24.60
2022-12-25T09:51:59.199Z,26.10
2022-12-25T09:52:59.141Z,26.50
2022-12-25T09:53:59.095Z,21.20
2022-12-25T09:54:59.108Z,19.50
2022-12-25T09:55:59.062Z,22.50
2022-12-25T09:56:59.091Z,19.20
2022-12-25T09:57:59.033Z,21.60
2022-12-25T09:58:59.011Z,21.80
2022-12-25T09:59:58.994Z,21.10
2022-12-25T10:00:58.982Z,23.40
2022-12-25T10:01:59.228Z,20.00
2022-12-25T10:02:59.239Z,20.70
2022-12-25T10:03:58.989Z,18.10
2022-12-25T10:04:58.910Z,23.90
2022-12-25T10:05:58.913Z,20.20
2022-12-25T10:06:58.920Z,19.70
2022-12-25T10:07:58.873Z,19.80
2022-12-25T10:08:58.853Z,19.60
2022-12-25T10:09:58.823Z,20.70
2022-12-25T10:10:58.807Z,17.40
2022-12-25T10:11:58.847Z,18.10
2022-12-25T10:12:58.775Z,18.90
2022-12-25T10:13:58.745Z,19.70
2022-12-25T10:14:58.779Z,20.90
2022-12-25T10:15:58.760Z,20.10
2022-12-25T10:16:58.728Z,21.00
2022-12-25T10:17:58.683Z,18.70
2022-12-25T10:18:58.686Z,17.10
2022-12-25T10:19:58.670Z,19.50
2022-12-25T10:20:58.620Z,21.10
2022-12-25T10:21:58.671Z,19.40
2022-12-25T10:22:58.602Z,18.20
2022-12-25T10:23:58.620Z,21.10
2022-12-25T10:24:58.564Z,19.70
2022-12-25T10:25:58.577Z,18.10
2022-12-25T10:26:58.556Z,17.70
2022-12-25T10:27:58.497Z,21.70
2022-12-25T10:28:58.532Z,20.80
2022-12-25T10:29:58.499Z,19.20
2022-12-25T10:30:58.524Z,21.80
2022-12-25T10:31:58.474Z,25.30
2022-12-25T10:32:58.439Z,23.50
2022-12-25T10:33:58.416Z,24.90
2022-12-25T10:34:58.403Z,21.60
2022-12-25T10:35:58.370Z,20.80
2022-12-25T10:36:58.408Z,19.10
2022-12-25T10:37:58.352Z,18.40
2022-12-25T10:38:58.331Z,21.30
2022-12-25T10:39:58.310Z,21.70
2022-12-25T10:40:58.284Z,26.70
2022-12-25T10:41:58.298Z,27.30
2022-12-25T10:42:58.251Z,21.10
2022-12-25T10:43:58.243Z,25.10
2022-12-25T10:44:58.221Z,20.00
2022-12-25T10:45:58.262Z,25.90
2022-12-25T10:46:58.294Z,22.00
2022-12-25T10:48:04.959Z,18.70
2022-12-25T10:49:00.160Z,20.40
2022-12-25T10:49:58.292Z,17.80
2022-12-25T10:50:58.105Z,20.80
2022-12-25T10:51:58.153Z,23.90
2022-12-25T10:52:58.073Z,21.50
2022-12-25T10:53:58.069Z,23.10
2022-12-25T10:54:58.066Z,28.50
2022-12-25T10:55:58.026Z,20.10
2022-12-25T10:56:58.063Z,23.00
2022-12-25T10:57:58.157Z,21.80
2022-12-25T10:58:57.971Z,23.30
2022-12-25T10:59:57.963Z,20.40
2022-12-25T11:00:57.956Z,23.10
2022-12-25T11:01:58.093Z,23.00
2022-12-25T11:02:58.205Z,23.10
2022-12-25T11:03:57.959Z,21.00
2022-12-25T11:04:57.871Z,17.70
2022-12-25T11:05:57.858Z,20.40
2022-12-25T11:06:57.881Z,18.60
2022-12-25T11:07:57.843Z,19.80
2022-12-25T11:08:57.801Z,18.60
2022-12-25T11:10:02.685Z,16.40
2022-12-25T11:10:59.768Z,16.80
2022-12-25T11:11:57.783Z,17.90
2022-12-25T11:12:57.744Z,17.90
2022-12-25T11:13:57.735Z,17.40
2022-12-25T11:14:57.751Z,15.80
2022-12-25T11:15:57.741Z,16.80
2022-12-25T11:16:57.705Z,21.70
2022-12-25T11:17:57.657Z,16.90
2022-12-25T11:18:57.631Z,19.40
2022-12-25T11:19:57.614Z,20.80
2022-12-25T11:20:57.607Z,20.10
2022-12-25T11:21:57.627Z,16.10
2022-12-25T11:22:57.564Z,17.50
2022-12-25T11:23:57.549Z,15.80
2022-12-25T11:24:57.559Z,15.90
2022-12-25T11:25:57.519Z,16.90
2022-12-25T11:26:57.530Z,16.10
2022-12-25T11:27:57.486Z,16.70
2022-12-25T11:28:57.477Z,19.20
2022-12-25T11:29:57.474Z,17.90
2022-12-25T11:30:57.486Z,17.90
2022-12-25T11:31:57.443Z,17.20
2022-12-25T11:32:57.393Z,17.10
2022-12-25T11:33:57.397Z,15.50
2022-12-25T11:34:57.370Z,15.70
2022-12-25T11:35:57.339Z,13.70
2022-12-25T11:36:57.370Z,15.20
2022-12-25T11:37:57.322Z,14.00
2022-12-25T11:38:57.300Z,14.70
2022-12-25T11:39:57.290Z,14.20
2022-12-25T11:40:57.254Z,13.80
2022-12-25T11:41:57.274Z,13.50
2022-12-25T11:42:58.243Z,13.40
2022-12-25T11:43:57.217Z,15.30
2022-12-25T11:44:57.186Z,13.20
2022-12-25T11:45:57.180Z,14.70
2022-12-25T11:46:57.210Z,18.50
2022-12-25T11:47:57.152Z,14.80
2022-12-25T11:48:57.150Z,15.00
2022-12-25T11:50:00.451Z,13.50
2022-12-25T11:50:58.107Z,12.70
2022-12-25T11:51:57.114Z,13.50
2022-12-25T11:52:57.066Z,18.10
2022-12-25T11:53:57.031Z,12.70
2022-12-25T11:54:57.019Z,14.20
2022-12-25T11:55:57.001Z,13.00
2022-12-25T11:56:57.013Z,11.60
2022-12-25T11:57:56.969Z,13.90
2022-12-25T11:58:56.980Z,14.80
2022-12-25T11:59:56.974Z,10.90
2022-12-25T12:00:56.927Z,9.80
2022-12-25T12:01:57.074Z,11.40
2022-12-25T12:02:56.990Z,12.90
2022-12-25T12:03:56.918Z,11.50
2022-12-25T12:04:56.852Z,10.60
2022-12-25T12:05:56.832Z,12.80
2022-12-25T12:06:56.857Z,12.00
2022-12-25T12:07:56.799Z,11.50
2022-12-25T12:08:56.789Z,11.80
2022-12-25T12:09:56.778Z,12.50
2022-12-25T12:10:56.760Z,10.10
2022-12-25T12:11:56.762Z,10.80
2022-12-25T12:12:56.717Z,11.30
2022-12-25T12:13:56.710Z,9.40
2022-12-25T12:14:56.676Z,9.90
2022-12-25T12:15:56.713Z,11.10
2022-12-25T12:16:56.760Z,9.90
2022-12-25T12:17:56.672Z,9.10
2022-12-25T12:18:56.627Z,9.70
2022-12-25T12:19:56.612Z,9.30
2022-12-25T12:20:56.578Z,9.50
2022-12-25T12:21:56.585Z,8.40
2022-12-25T12:22:56.578Z,8.70
2022-12-25T12:23:56.540Z,17.60
2022-12-25T12:24:56.507Z,20.70
2022-12-25T12:25:56.493Z,8.70
2022-12-25T12:26:56.475Z,7.50
2022-12-25T12:28:02.911Z,8.80
2022-12-25T12:28:58.456Z,7.20
2022-12-25T12:29:56.456Z,13.60
2022-12-25T12:30:56.410Z,8.20
2022-12-25T12:31:56.413Z,18.60
2022-12-25T12:32:56.403Z,31.40
2022-12-25T12:33:56.343Z,9.80
2022-12-25T12:34:56.359Z,9.30
2022-12-25T12:35:56.334Z,11.60
2022-12-25T12:36:56.302Z,9.50
2022-12-25T12:37:57.313Z,11.20
2022-12-25T12:38:56.282Z,9.80
2022-12-25T12:39:56.248Z,10.40
2022-12-25T12:40:56.237Z,11.00
2022-12-25T12:41:56.212Z,10.60
2022-12-25T12:42:56.244Z,12.30
2022-12-25T12:43:56.194Z,16.60
2022-12-25T12:44:56.162Z,10.30
2022-12-25T12:45:56.241Z,9.80
2022-12-25T12:46:56.156Z,10.10
2022-12-25T12:47:56.136Z,9.50
2022-12-25T12:48:56.092Z,9.00
2022-12-25T12:49:56.086Z,8.00